createdAt,value
2022-11-04T00:01:46.727Z,10.73
2022-11-04T00:04:17.138Z,10.93
2022-11-04T00:06:44.136Z,10.40
2022-11-04T00:09:16.242Z,10.90
2022-11-04T00:12:01.428Z,11.20
2022-11-04T00:14:30.518Z,11.43
2022-11-04T00:17:17.219Z,10.33
2022-11-04T00:20:02.564Z,9.90
2022-11-04T00:22:48.396Z,10.10
2022-11-04T00:25:34.143Z,9.97
2022-11-04T00:28:31.727Z,10.47
2022-11-04T00:31:23.120Z,9.83
2022-11-04T00:33:52.670Z,9.57
2022-11-04T00:36:20.212Z,10.43
2022-11-04T00:38:47.387Z,10.37
2022-11-04T00:41:26.683Z,10.33
2022-11-04T00:44:07.485Z,10.33
2022-11-04T00:46:35.095Z,10.40
2022-11-04T00:49:02.101Z,10.23
2022-11-04T00:51:29.232Z,10.47
2022-11-04T00:53:58.180Z,10.33
2022-11-04T00:56:25.264Z,10.50
2022-11-04T00:58:52.277Z,10.33
2022-11-04T01:01:20.234Z,10.47
2022-11-04T01:03:50.191Z,9.93
2022-11-04T01:06:18.730Z,10.30
2022-11-04T01:08:46.319Z,9.87
2022-11-04T01:11:13.939Z,10.87
2022-11-04T01:13:41.332Z,9.43
2022-11-04T01:16:11.188Z,9.87
2022-11-04T01:18:39.672Z,10.07
2022-11-04T01:21:08.922Z,10.37
2022-11-04T01:23:36.404Z,9.50
2022-11-04T01:26:12.944Z,9.20
2022-11-04T01:28:39.844Z,9.03
2022-11-04T01:31:21.549Z,8.90
2022-11-04T01:33:50.081Z,9.57
2022-11-04T01:36:17.651Z,9.83
2022-11-04T01:38:44.770Z,9.53
2022-11-04T01:41:25.681Z,10.70
2022-11-04T01:44:00.357Z,9.20
2022-11-04T01:46:43.944Z,8.63
2022-11-04T01:49:26.681Z,9.63
2022-11-04T01:52:01.474Z,9.93
2022-11-04T01:54:29.667Z,9.73
2022-11-04T01:56:58.096Z,10.20
2022-11-04T01:59:35.607Z,10.37
2022-11-04T02:02:03.731Z,10.03
2022-11-04T02:04:31.819Z,10.30
2022-11-04T02:07:07.114Z,9.63
2022-11-04T02:09:36.070Z,10.43
2022-11-04T02:12:21.879Z,9.50
2022-11-04T02:14:50.681Z,9.77
2022-11-04T02:17:29.841Z,9.93
2022-11-04T02:20:17.309Z,9.73
2022-11-04T02:23:26.411Z,9.47
2022-11-04T02:26:39.060Z,9.67
2022-11-04T02:29:24.022Z,9.83
2022-11-04T02:32:24.699Z,9.93
2022-11-04T02:35:09.626Z,10.13
2022-11-04T02:38:01.371Z,10.17
2022-11-04T02:40:34.410Z,9.63
2022-11-04T02:43:42.929Z,9.60
2022-11-04T02:46:22.224Z,9.10
2022-11-04T02:49:15.796Z,10.23
2022-11-04T02:51:47.716Z,9.60
2022-11-04T02:54:24.337Z,9.60
2022-11-04T02:56:56.303Z,9.97
2022-11-04T02:59:36.724Z,9.70
2022-11-04T03:02:08.395Z,10.40
2022-11-04T03:04:42.281Z,10.50
2022-11-04T03:07:12.855Z,9.27
2022-11-04T03:09:47.800Z,9.53
2022-11-04T03:12:20.460Z,9.73
2022-11-04T03:14:52.595Z,9.57
2022-11-04T03:17:47.072Z,9.00
2022-11-04T03:20:20.821Z,9.87
2022-11-04T03:22:47.788Z,9.77
2022-11-04T03:25:15.246Z,9.77
2022-11-04T03:28:20.163Z,9.40
2022-11-04T03:30:49.543Z,10.10
2022-11-04T03:33:27.340Z,8.80
2022-11-04T03:35:54.320Z,8.57
2022-11-04T03:38:22.981Z,9.73
2022-11-04T03:40:51.118Z,9.23
2022-11-04T03:43:27.398Z,9.10
2022-11-04T03:45:55.541Z,8.90
2022-11-04T03:48:23.386Z,9.87
2022-11-04T03:50:51.223Z,8.80
2022-11-04T03:53:23.055Z,9.90
2022-11-04T03:56:25.188Z,8.27
2022-11-04T03:59:08.165Z,8.47
2022-11-04T04:01:56.956Z,9.07
2022-11-04T04:04:35.139Z,9.67
2022-11-04T04:07:18.198Z,8.27
2022-11-04T04:09:54.022Z,8.30
2022-11-04T04:12:31.424Z,9.00
2022-11-04T04:15:13.730Z,8.90
2022-11-04T04:17:52.952Z,8.13
2022-11-04T04:20:23.649Z,8.03
2022-11-04T04:23:30.192Z,8.33
2022-11-04T04:26:21.419Z,8.83
2022-11-04T04:28:49.571Z,7.73
2022-11-04T04:31:37.426Z,7.90
2022-11-04T04:34:04.508Z,7.33
2022-11-04T04:36:38.298Z,8.33
2022-11-04T04:39:28.205Z,8.80
2022-11-04T04:42:14.087Z,8.00
2022-11-04T04:45:01.790Z,7.23
2022-11-04T04:47:45.945Z,7.70
2022-11-04T04:50:17.093Z,7.80
2022-11-04T04:52:51.404Z,8.33
2022-11-04T04:55:18.981Z,7.83
2022-11-04T04:57:46.194Z,7.40
2022-11-04T05:00:18.203Z,8.03
2022-11-04T05:02:45.598Z,8.17
2022-11-04T05:05:13.509Z,9.17
2022-11-04T05:07:40.481Z,8.03
2022-11-04T05:10:10.532Z,8.30
2022-11-04T05:12:59.763Z,8.07
2022-11-04T05:15:27.246Z,7.53
2022-11-04T05:17:56.707Z,7.67
2022-11-04T05:20:24.779Z,7.63
2022-11-04T05:22:52.040Z,7.43
2022-11-04T05:25:18.916Z,7.77
2022-11-04T05:27:45.811Z,7.77
2022-11-04T05:30:12.804Z,7.50
2022-11-04T05:32:39.676Z,7.30
2022-11-04T05:35:07.086Z,7.37
2022-11-04T05:37:33.965Z,7.70
2022-11-04T05:40:00.867Z,7.57
2022-11-04T05:42:29.561Z,8.30
2022-11-04T05:44:56.452Z,8.13
2022-11-04T05:47:23.756Z,6.90
2022-11-04T05:49:50.652Z,7.17
2022-11-04T05:52:17.527Z,7.80
2022-11-04T05:54:44.469Z,7.37
2022-11-04T05:57:11.536Z,7.73
2022-11-04T05:59:38.516Z,6.97
2022-11-04T06:02:05.552Z,6.80
2022-11-04T06:04:32.569Z,8.23
2022-11-04T06:06:59.771Z,8.00
2022-11-04T06:09:39.152Z,8.27
2022-11-04T06:12:15.076Z,7.07
2022-11-04T06:14:43.482Z,7.43
2022-11-04T06:17:16.286Z,7.20
2022-11-04T06:19:43.458Z,8.17
2022-11-04T06:22:12.974Z,7.60
2022-11-04T06:24:40.161Z,7.30
2022-11-04T06:27:07.823Z,7.50
2022-11-04T06:29:36.574Z,7.67
2022-11-04T06:32:03.567Z,9.13
2022-11-04T06:34:30.502Z,8.67
2022-11-04T06:36:57.386Z,7.73
2022-11-04T06:39:24.267Z,7.30
2022-11-04T06:41:51.868Z,10.17
2022-11-04T06:44:19.891Z,7.53
2022-11-04T06:46:46.807Z,7.67
2022-11-04T06:49:18.161Z,7.60
2022-11-04T06:51:45.142Z,7.43
2022-11-04T06:54:12.542Z,7.40
2022-11-04T06:56:40.106Z,7.63
2022-11-04T06:59:07.739Z,6.63
2022-11-04T07:01:36.827Z,6.77
2022-11-04T07:04:05.470Z,7.70
2022-11-04T07:06:32.399Z,7.00
2022-11-04T07:09:01.780Z,7.37
2022-11-04T07:11:32.357Z,7.67
2022-11-04T07:13:59.349Z,7.00
2022-11-04T07:16:27.335Z,6.93
2022-11-04T07:18:55.622Z,7.37
2022-11-04T07:21:23.427Z,8.27
2022-11-04T07:23:50.306Z,8.93
2022-11-04T07:26:17.310Z,9.90
2022-11-04T07:28:44.372Z,8.17
2022-11-04T07:31:13.606Z,7.30
2022-11-04T07:33:40.592Z,7.23
2022-11-04T07:36:12.059Z,7.30
2022-11-04T07:38:38.980Z,7.73
2022-11-04T07:41:06.084Z,7.73
2022-11-04T07:43:32.977Z,7.60
2022-11-04T07:46:11.874Z,7.57
2022-11-04T07:48:39.540Z,6.50
2022-11-04T07:51:09.055Z,8.53
2022-11-04T07:53:36.047Z,8.43
2022-11-04T07:56:08.665Z,7.67
2022-11-04T07:58:35.605Z,7.03
2022-11-04T08:01:07.322Z,8.10
2022-11-04T08:03:35.548Z,8.37
2022-11-04T08:06:05.726Z,8.27
2022-11-04T08:08:32.684Z,8.57
2022-11-04T08:11:11.507Z,8.57
2022-11-04T08:13:41.715Z,7.07
2022-11-04T08:16:13.856Z,8.30
2022-11-04T08:18:42.467Z,8.77
2022-11-04T08:21:10.760Z,7.77
2022-11-04T08:23:38.693Z,8.53
2022-11-04T08:26:16.708Z,8.35
2022-11-04T08:28:43.677Z,7.93
2022-11-04T08:31:24.239Z,8.17
2022-11-04T08:33:52.060Z,9.47
2022-11-04T08:36:23.546Z,7.53
2022-11-04T08:38:51.027Z,9.17
2022-11-04T08:41:23.720Z,8.23
2022-11-04T08:43:50.618Z,7.70
2022-11-04T08:46:18.581Z,8.80
2022-11-04T08:48:46.358Z,9.20
2022-11-04T08:51:26.540Z,9.87
2022-11-04T08:53:54.065Z,8.60
2022-11-04T08:56:28.373Z,8.23
2022-11-04T08:58:58.325Z,7.73
2022-11-04T09:01:30.020Z,8.60
2022-11-04T09:04:01.320Z,8.35
2022-11-04T09:06:34.377Z,8.53
2022-11-04T09:09:04.535Z,8.47
2022-11-04T09:11:38.413Z,8.27
2022-11-04T09:14:06.362Z,8.23
2022-11-04T09:16:35.415Z,8.23
2022-11-04T09:19:03.130Z,8.40
2022-11-04T09:21:30.055Z,8.13
2022-11-04T09:23:57.301Z,8.33
2022-11-04T09:26:25.784Z,8.48
2022-11-04T09:28:57.959Z,8.43
2022-11-04T09:31:27.231Z,8.95
2022-11-04T09:33:55.577Z,7.97
2022-11-04T09:36:23.156Z,8.45
2022-11-04T09:38:50.140Z,8.60
2022-11-04T09:41:41.048Z,7.63
2022-11-04T09:44:27.257Z,8.93
2022-11-04T09:47:02.043Z,8.80
2022-11-04T09:49:36.803Z,8.80
2022-11-04T09:52:16.994Z,8.80
2022-11-04T09:54:55.145Z,8.37
2022-11-04T09:57:22.165Z,8.65
2022-11-04T09:59:49.380Z,8.23
2022-11-04T10:02:43.119Z,13.10
2022-11-04T10:05:40.573Z,8.30
2022-11-04T10:08:30.725Z,8.23
2022-11-04T10:11:32.003Z,7.93
2022-11-04T10:14:17.152Z,7.53
2022-11-04T10:17:22.472Z,7.78
2022-11-04T10:19:55.424Z,8.75
2022-11-04T10:22:40.020Z,6.95
2022-11-04T10:25:22.775Z,7.35
2022-11-04T10:27:59.358Z,8.27
2022-11-04T10:30:26.897Z,7.68
2022-11-04T10:33:17.443Z,7.25
2022-11-04T10:35:51.832Z,8.48
2022-11-04T10:38:29.682Z,7.97
2022-11-04T10:40:57.209Z,7.47
2022-11-04T10:43:33.414Z,8.00
2022-11-04T10:46:38.862Z,7.90
2022-11-04T10:50:21.973Z,7.13
2022-11-04T10:52:38.934Z,7.63
2022-11-04T10:55:47.708Z,8.15
2022-11-04T10:58:26.078Z,7.95
2022-11-04T11:00:54.594Z,8.23
2022-11-04T11:03:34.479Z,7.80
2022-11-04T11:06:28.271Z,8.70
2022-11-04T11:09:13.174Z,7.15
2022-11-04T11:11:50.805Z,7.43
2022-11-04T11:14:30.359Z,7.72
2022-11-04T11:17:14.306Z,7.85
2022-11-04T11:20:14.856Z,7.32
2022-11-04T11:22:44.916Z,8.20
2022-11-04T11:25:30.797Z,7.00
2022-11-04T11:28:06.752Z,7.35
2022-11-04T11:30:45.906Z,6.95
2022-11-04T11:33:33.695Z,6.88
2022-11-04T11:36:11.937Z,8.70
2022-11-04T11:38:53.004Z,9.88
2022-11-04T11:41:25.556Z,7.97
2022-11-04T11:43:55.985Z,7.50
2022-11-04T11:46:26.328Z,7.35
2022-11-04T11:49:01.057Z,7.35
2022-11-04T11:51:35.832Z,8.55
2022-11-04T11:54:29.647Z,7.72
2022-11-04T11:57:13.236Z,8.10
2022-11-04T12:03:21.086Z,7.57
2022-11-04T12:09:23.165Z,7.80
2022-11-04T12:12:04.396Z,8.82
2022-11-04T12:15:07.186Z,9.23
2022-11-04T12:18:02.147Z,10.25
2022-11-04T12:20:47.593Z,8.55
2022-11-04T12:23:39.700Z,8.73
2022-11-04T12:26:40.356Z,7.57
2022-11-04T12:29:52.293Z,7.57
2022-11-04T12:32:35.306Z,7.18
2022-11-04T12:35:42.440Z,7.70
2022-11-04T12:38:21.219Z,7.95
2022-11-04T12:41:52.771Z,7.50
2022-11-04T12:44:45.190Z,7.13
2022-11-04T12:47:35.881Z,7.25
2022-11-04T12:50:35.680Z,6.95
2022-11-04T12:53:43.170Z,7.05
2022-11-04T12:56:12.833Z,7.50
2022-11-04T12:59:21.959Z,7.82
2022-11-04T13:01:56.514Z,7.15
2022-11-04T13:04:26.922Z,7.93
2022-11-04T13:07:01.232Z,7.15
2022-11-04T13:09:45.010Z,6.43
2022-11-04T13:12:30.328Z,6.68
2022-11-04T13:15:05.568Z,6.80
2022-11-04T13:17:39.742Z,6.85
2022-11-04T13:20:29.695Z,7.43
2022-11-04T13:23:03.521Z,7.45
2022-11-04T13:25:35.124Z,7.40
2022-11-04T13:28:03.494Z,6.68
2022-11-04T13:30:30.272Z,7.43
2022-11-04T13:33:21.484Z,8.23
2022-11-04T13:36:12.402Z,7.47
2022-11-04T13:38:45.032Z,7.25
2022-11-04T13:41:35.205Z,7.65
2022-11-04T13:44:10.876Z,8.63
2022-11-04T13:46:37.781Z,9.23
2022-11-04T13:49:32.436Z,8.82
2022-11-04T13:52:11.049Z,9.00
2022-11-04T13:54:57.229Z,9.73
2022-11-04T13:57:27.709Z,8.60
2022-11-04T14:00:13.096Z,9.40
2022-11-04T14:03:13.896Z,8.02
2022-11-04T14:05:40.828Z,7.32
2022-11-04T14:08:17.250Z,7.15
2022-11-04T14:10:49.865Z,8.25
2022-11-04T14:13:33.376Z,8.65
2022-11-04T14:16:11.068Z,8.90
2022-11-04T14:18:49.269Z,9.32
2022-11-04T14:21:26.015Z,11.63
2022-11-04T14:24:00.347Z,9.25
2022-11-04T14:26:43.380Z,12.68
2022-11-04T14:29:23.796Z,11.38
2022-11-04T14:31:54.025Z,11.82
2022-11-04T14:34:34.572Z,11.65
2022-11-04T14:37:06.862Z,9.43
2022-11-04T14:39:39.185Z,9.38
2022-11-04T14:42:09.834Z,10.55
2022-11-04T14:44:48.003Z,11.65
2022-11-04T14:47:27.673Z,10.48
2022-11-04T14:50:04.633Z,10.68
2022-11-04T14:52:47.559Z,10.63
2022-11-04T14:55:32.275Z,12.88
2022-11-04T14:58:28.184Z,10.50
2022-11-04T15:01:02.833Z,9.60
2022-11-04T15:06:53.505Z,8.30
2022-11-04T15:09:35.322Z,8.98
2022-11-04T15:12:28.274Z,9.80
2022-11-04T15:14:56.136Z,9.10
2022-11-04T15:17:27.727Z,9.75
2022-11-04T15:19:58.061Z,10.05
2022-11-04T15:22:25.287Z,10.75
2022-11-04T15:24:53.075Z,10.43
2022-11-04T15:27:28.560Z,12.93
2022-11-04T15:30:03.029Z,12.55
2022-11-04T15:32:30.655Z,14.65
2022-11-04T15:34:58.211Z,12.98
2022-11-04T15:37:28.953Z,10.20
2022-11-04T15:39:57.898Z,10.43
2022-11-04T15:42:40.119Z,10.07
2022-11-04T15:45:36.525Z,12.02
2022-11-04T15:48:25.777Z,11.00
2022-11-04T15:51:12.526Z,10.75
2022-11-04T15:54:15.674Z,11.50
2022-11-04T15:56:53.909Z,10.88
2022-11-04T15:59:28.966Z,13.18
2022-11-04T16:01:56.129Z,12.07
2022-11-04T16:04:27.076Z,12.50
2022-11-04T16:07:11.060Z,13.13
2022-11-04T16:09:52.367Z,12.57
2022-11-04T16:12:28.086Z,12.52
2022-11-04T16:14:58.242Z,12.70
2022-11-04T16:17:26.638Z,12.48
2022-11-04T16:20:01.575Z,12.88
2022-11-04T16:22:38.821Z,12.82
2022-11-04T16:25:11.062Z,13.95
2022-11-04T16:27:38.541Z,14.15
2022-11-04T16:30:23.283Z,15.27
2022-11-04T16:32:56.629Z,16.77
2022-11-04T16:35:28.171Z,14.40
2022-11-04T16:37:56.426Z,14.48
2022-11-04T16:40:24.906Z,15.25
2022-11-04T16:42:53.743Z,15.43
2022-11-04T16:45:34.664Z,15.23
2022-11-04T16:48:02.040Z,17.10
2022-11-04T16:50:29.395Z,15.25
2022-11-04T16:52:56.371Z,16.30
2022-11-04T16:55:24.487Z,14.68
2022-11-04T16:58:01.291Z,17.52
2022-11-04T17:00:34.227Z,16.55
2022-11-04T17:03:08.885Z,21.65
2022-11-04T17:05:35.990Z,18.65
2022-11-04T17:08:06.121Z,19.48
2022-11-04T17:10:35.805Z,17.95
2022-11-04T17:13:02.750Z,17.67
2022-11-04T17:15:29.724Z,17.90
2022-11-04T17:17:56.761Z,19.58
2022-11-04T17:20:23.764Z,22.02
2022-11-04T17:22:50.994Z,21.88
2022-11-04T17:25:24.093Z,17.77
2022-11-04T17:27:51.431Z,16.73
2022-11-04T17:30:23.607Z,16.63
2022-11-04T17:32:57.184Z,16.52
2022-11-04T17:35:24.432Z,17.45
2022-11-04T17:37:54.945Z,16.45
2022-11-04T17:40:24.068Z,14.00
2022-11-04T17:43:12.856Z,15.00
2022-11-04T17:45:44.269Z,13.38
2022-11-04T17:48:14.101Z,14.15
2022-11-04T17:50:42.380Z,14.25
2022-11-04T17:53:09.887Z,14.85
2022-11-04T17:55:39.964Z,13.63
2022-11-04T17:58:06.955Z,14.43
2022-11-04T18:00:33.926Z,15.82
2022-11-04T18:03:00.869Z,15.30
2022-11-04T18:05:27.758Z,15.50
2022-11-04T18:07:56.566Z,15.10
2022-11-04T18:10:23.567Z,19.15
2022-11-04T18:12:50.916Z,20.85
2022-11-04T18:15:17.926Z,16.08
2022-11-04T18:17:45.804Z,18.88
2022-11-04T18:20:17.342Z,25.73
2022-11-04T18:22:44.783Z,20.85
2022-11-04T18:25:12.219Z,16.48
2022-11-04T18:27:39.289Z,16.13
2022-11-04T18:30:07.209Z,15.95
2022-11-04T18:32:34.114Z,16.23
2022-11-04T18:35:01.025Z,16.85
2022-11-04T18:37:29.377Z,16.85
2022-11-04T18:39:58.617Z,16.67
2022-11-04T18:42:25.668Z,20.45
2022-11-04T18:44:52.732Z,19.50
2022-11-04T18:47:20.245Z,20.25
2022-11-04T18:49:47.897Z,16.13
2022-11-04T18:52:14.982Z,18.08
2022-11-04T18:54:45.331Z,22.38
2022-11-04T18:57:12.820Z,18.23
2022-11-04T18:59:39.751Z,14.85
2022-11-04T19:02:07.260Z,18.83
2022-11-04T19:04:34.250Z,19.23
2022-11-04T19:07:01.805Z,17.40
2022-11-04T19:12:35.467Z,14.52
2022-11-04T19:15:04.584Z,16.80
2022-11-04T19:17:31.716Z,14.52
2022-11-04T19:19:58.744Z,14.98
2022-11-04T19:22:28.734Z,16.95
2022-11-04T19:24:55.757Z,19.60
2022-11-04T19:27:24.978Z,22.83
2022-11-04T19:29:52.733Z,16.13
2022-11-04T19:32:19.608Z,15.85
2022-11-04T19:34:46.673Z,14.88
2022-11-04T19:37:14.054Z,15.27
2022-11-04T19:39:41.304Z,15.07
2022-11-04T19:42:28.770Z,14.80
2022-11-04T19:44:55.801Z,14.23
2022-11-04T19:47:22.967Z,14.50
2022-11-04T19:49:49.838Z,14.80
2022-11-04T19:52:16.878Z,14.75
2022-11-04T19:54:43.767Z,15.63
2022-11-04T19:57:10.647Z,15.20
2022-11-04T19:59:37.552Z,14.65
2022-11-04T20:02:04.608Z,14.15
2022-11-04T20:04:31.576Z,14.05
2022-11-04T20:06:58.522Z,14.32
2022-11-04T20:09:26.135Z,14.02
2022-11-04T20:12:11.438Z,14.50
2022-11-04T20:14:38.353Z,14.55
2022-11-04T20:17:08.420Z,13.77
2022-11-04T20:19:35.440Z,13.68
2022-11-04T20:22:02.924Z,15.20
2022-11-04T20:24:30.235Z,14.13
2022-11-04T20:26:57.192Z,12.82
2022-11-04T20:29:24.144Z,12.98
2022-11-04T20:31:51.029Z,12.93
2022-11-04T20:34:17.936Z,12.55
2022-11-04T20:36:44.830Z,13.50
2022-11-04T20:39:17.666Z,14.55
2022-11-04T20:41:45.206Z,16.23
2022-11-04T20:44:14.529Z,16.27
2022-11-04T20:46:42.923Z,14.90
2022-11-04T20:49:11.067Z,15.43
2022-11-04T20:51:48.731Z,14.80
2022-11-04T20:54:17.311Z,16.65
2022-11-04T20:56:45.417Z,16.40
2022-11-04T20:59:13.941Z,15.98
2022-11-04T21:01:44.392Z,14.95
2022-11-04T21:04:15.187Z,15.15
2022-11-04T21:06:42.742Z,14.38
2022-11-04T21:09:12.822Z,13.43
2022-11-04T21:11:40.506Z,12.30
2022-11-04T21:14:08.814Z,12.55
2022-11-04T21:16:36.254Z,12.48
2022-11-04T21:19:04.700Z,12.57
2022-11-04T21:21:33.264Z,12.65
2022-11-04T21:24:03.400Z,12.57
2022-11-04T21:26:34.231Z,14.23
2022-11-04T21:29:06.977Z,12.95
2022-11-04T21:31:35.940Z,13.40
2022-11-04T21:34:03.791Z,14.88
2022-11-04T21:36:31.281Z,16.75
2022-11-04T21:38:59.159Z,15.65
2022-11-04T21:41:29.624Z,17.58
2022-11-04T21:44:02.683Z,13.10
2022-11-04T21:46:32.460Z,12.27
2022-11-04T21:48:59.602Z,13.13
2022-11-04T21:51:30.429Z,11.73
2022-11-04T21:54:00.493Z,12.90
2022-11-04T21:56:33.145Z,15.23
2022-11-04T21:59:00.587Z,12.48
2022-11-04T22:01:29.669Z,12.60
2022-11-04T22:04:00.043Z,14.93
2022-11-04T22:06:35.132Z,13.35
2022-11-04T22:09:06.853Z,11.93
2022-11-04T22:11:39.662Z,12.48
2022-11-04T22:14:08.482Z,11.80
2022-11-04T22:16:39.028Z,11.07
2022-11-04T22:19:08.838Z,11.18
2022-11-04T22:21:40.442Z,11.77
2022-11-04T22:24:10.873Z,11.27
2022-11-04T22:26:38.074Z,11.55
2022-11-04T22:29:05.074Z,11.38
2022-11-04T22:31:35.536Z,12.30
2022-11-04T22:34:04.042Z,11.30
2022-11-04T22:36:32.679Z,11.15
2022-11-04T22:38:59.796Z,12.07
2022-11-04T22:41:30.812Z,11.50
2022-11-04T22:43:58.417Z,11.55
2022-11-04T22:46:29.560Z,11.63
2022-11-04T22:48:56.795Z,11.63
2022-11-04T22:51:23.959Z,11.27
2022-11-04T22:53:58.884Z,11.40
2022-11-04T22:56:28.481Z,12.07
2022-11-04T22:58:55.457Z,11.55
2022-11-04T23:01:22.759Z,11.20
2022-11-04T23:03:52.079Z,11.77
2022-11-04T23:06:19.690Z,10.88
2022-11-04T23:08:46.661Z,12.00
2022-11-04T23:11:38.465Z,11.90
2022-11-04T23:14:23.888Z,11.70
2022-11-04T23:17:10.535Z,11.25
2022-11-04T23:19:39.064Z,11.63
2022-11-04T23:22:26.030Z,12.98
2022-11-04T23:25:06.261Z,12.18
2022-11-04T23:27:54.327Z,11.55
2022-11-04T23:30:21.812Z,11.45
2022-11-04T23:32:49.780Z,11.38
2022-11-04T23:35:36.346Z,11.85
2022-11-04T23:38:03.732Z,11.40
2022-11-04T23:40:32.191Z,12.98
2022-11-04T23:42:59.093Z,11.50
2022-11-04T23:45:44.371Z,12.10
2022-11-04T23:48:30.926Z,11.38
2022-11-04T23:51:18.726Z,11.00
2022-11-04T23:54:05.136Z,11.68
2022-11-04T23:56:50.974Z,11.30
2022-11-04T23:59:37.363Z,12.00
